Time;durP1;ratioP1;P1;durP2;ratioP2;P2;SDS_P1;SDS_P2;PMS_P1;PMS_P2;Temp;Humidity;BMP_temperature;BMP_pressure;BME280_temperature;BME280_humidity;BME280_pressure;Samples;Min_cycle;Max_cycle;Signal;HPM_P1;HPM_P2
2021/05/04 00:03:37;;;;;;;6.30;4.00;;;;;;;10.78;39.42;99388.28;10268037;28;20243;-70
2021/05/04 00:08:39;;;;;;;7.40;4.50;;;;;;;10.83;39.31;99376.09;10266440;28;20310;-70
2021/05/04 00:13:41;;;;;;;4.63;3.40;;;;;;;10.51;39.87;99362.25;10269155;28;20231;-70
2021/05/04 00:18:44;;;;;;;4.97;4.03;;;;;;;10.73;39.47;99347.59;10308052;28;20719;-70
2021/05/04 00:23:46;;;;;;;6.28;3.80;;;;;;;10.48;39.74;99320.44;10307824;28;20235;-70
2021/05/04 00:28:48;;;;;;;11.15;4.80;;;;;;;10.53;39.72;99294.00;10308654;28;20246;-70
2021/05/04 00:33:52;;;;;;;6.00;4.45;;;;;;;10.41;39.82;99283.59;10307421;28;20757;-70
2021/05/04 00:38:54;;;;;;;6.57;4.05;;;;;;;10.53;39.79;99268.97;10307478;28;20258;-70
2021/05/04 00:43:56;;;;;;;4.35;3.95;;;;;;;10.53;39.80;99244.78;10305217;28;20333;-70
2021/05/04 00:48:58;;;;;;;5.32;3.90;;;;;;;10.56;39.92;99228.41;10305894;28;20619;-70
2021/05/04 00:54:02;;;;;;;5.35;4.18;;;;;;;10.52;39.84;99205.53;10305268;28;20227;-70
2021/05/04 00:59:06;;;;;;;5.85;3.83;;;;;;;10.41;39.93;99190.50;10310239;28;20249;-70
2021/05/04 01:04:09;;;;;;;7.38;3.92;;;;;;;10.58;39.77;99176.22;10312855;28;20536;-70
2021/05/04 01:09:13;;;;;;;4.03;3.63;;;;;;;10.61;39.74;99157.13;10313451;28;20862;-70
2021/05/04 01:14:16;;;;;;;4.32;3.42;;;;;;;10.73;39.72;99143.47;10305910;28;20228;-70
2021/05/04 01:19:19;;;;;;;8.02;3.63;;;;;;;10.47;40.07;99113.88;10273216;28;20231;-70
2021/05/04 01:24:22;;;;;;;5.65;3.40;;;;;;;10.71;39.76;99105.16;10272132;28;20239;-70
2021/05/04 01:29:24;;;;;;;6.68;3.92;;;;;;;10.56;39.94;99084.25;10272976;28;20247;-70
2021/05/04 01:34:25;;;;;;;4.15;3.75;;;;;;;10.63;39.87;99059.47;10271451;28;20246;-70
2021/05/04 01:39:40;;;;;;;4.53;3.63;;;;;;;10.65;39.69;99035.97;10270783;28;20325;-70
2021/05/04 01:44:43;;;;;;;4.50;3.55;;;;;;;10.77;39.66;99018.59;10271148;28;20247;-70
2021/05/04 01:49:45;;;;;;;4.53;3.55;;;;;;;10.66;39.96;98994.69;10269614;28;20594;-71
2021/05/04 01:54:49;;;;;;;6.03;3.80;;;;;;;10.64;39.86;98981.44;10273084;28;21525;-71
2021/05/04 01:59:51;;;;;;;3.63;3.33;;;;;;;10.83;39.72;98966.91;10268892;28;20270;-71
2021/05/04 02:04:53;;;;;;;3.75;3.00;;;;;;;10.77;39.55;98972.94;10270972;28;20232;-71
2021/05/04 02:09:57;;;;;;;6.93;3.75;;;;;;;10.88;39.57;98932.34;10266572;28;20354;-71
2021/05/04 02:14:59;;;;;;;5.05;3.35;;;;;;;10.85;39.64;98913.88;10283160;28;20246;-71
2021/05/04 02:20:01;;;;;;;4.45;3.42;;;;;;;10.93;39.63;98889.72;10310126;28;20239;-71
2021/05/04 02:25:05;;;;;;;4.90;3.65;;;;;;;10.83;39.75;98879.16;10311451;28;20247;-70
2021/05/04 02:30:08;;;;;;;4.15;3.55;;;;;;;10.90;39.63;98849.78;10311106;28;20245;-70
2021/05/04 02:35:11;;;;;;;3.38;2.88;;;;;;;10.90;39.52;98847.09;10311029;28;20740;-71
2021/05/04 02:40:15;;;;;;;3.75;2.88;;;;;;;10.79;39.59;98834.78;10309111;28;20792;-71
2021/05/04 02:45:17;;;;;;;4.55;3.28;;;;;;;11.18;39.07;98822.66;10309934;28;21935;-70
2021/05/04 02:50:19;;;;;;;5.35;3.40;;;;;;;11.12;38.88;98823.28;10308591;28;20239;-70
2021/05/04 02:55:22;;;;;;;9.55;3.00;;;;;;;11.15;39.02;98812.25;10308566;28;20242;-70
2021/05/04 03:00:24;;;;;;;2.63;2.40;;;;;;;10.97;38.90;98799.75;10309840;28;20610;-70
2021/05/04 03:05:26;;;;;;;4.38;2.28;;;;;;;10.80;40.32;98790.81;10309155;28;20254;-70
2021/05/04 03:10:29;;;;;;;6.32;2.42;;;;;;;10.29;42.86;98827.56;10307201;28;20250;-70
2021/05/04 03:15:31;;;;;;;4.78;2.72;;;;;;;10.25;43.34;98796.66;10290807;28;20266;-70
2021/05/04 03:20:33;;;;;;;3.63;1.77;;;;;;;10.40;43.24;98764.72;10266675;28;20262;-70
2021/05/04 03:25:36;;;;;;;3.25;2.10;;;;;;;10.38;41.50;98796.22;10268167;28;20240;-70
2021/05/04 03:30:38;;;;;;;4.93;2.65;;;;;;;10.26;42.02;98759.97;10268089;28;20262;-70
2021/05/04 03:35:40;;;;;;;5.82;2.45;;;;;;;10.95;40.48;98771.38;10268930;28;20244;-70
2021/05/04 03:40:43;;;;;;;3.22;2.47;;;;;;;10.15;43.73;98775.34;10269277;28;20251;-71
2021/05/04 03:45:45;;;;;;;2.42;2.10;;;;;;;10.48;43.62;98748.63;10266981;28;20809;-71
2021/05/04 03:50:48;;;;;;;3.00;2.47;;;;;;;9.63;47.66;98769.16;10268454;28;20735;-71
2021/05/04 03:55:51;;;;;;;3.53;2.47;;;;;;;8.84;52.12;98746.75;10267302;28;20250;-71
2021/05/04 04:00:53;;;;;;;6.10;2.80;;;;;;;8.39;55.41;98761.84;10267391;28;21126;-71
2021/05/04 04:05:56;;;;;;;3.45;2.33;;;;;;;7.81;59.69;98769.25;10266897;28;20243;-71
2021/05/04 04:10:58;;;;;;;3.28;2.67;;;;;;;7.09;61.34;98810.72;10266548;28;20609;-71
2021/05/04 04:16:01;;;;;;;5.00;3.08;;;;;;;6.71;65.68;98780.31;10287485;28;20315;-71
2021/05/04 04:21:03;;;;;;;5.82;3.10;;;;;;;6.51;66.97;98793.63;10306848;28;20680;-71
2021/05/04 04:26:06;;;;;;;2.60;2.40;;;;;;;6.06;70.67;98812.72;10307072;28;20235;-71
2021/05/04 04:31:08;;;;;;;3.40;2.85;;;;;;;5.90;72.33;98775.06;10306055;28;20246;-72
2021/05/04 04:36:10;;;;;;;4.75;3.50;;;;;;;5.89;73.89;98803.50;10314402;28;20235;-72
2021/05/04 04:41:13;;;;;;;6.03;3.63;;;;;;;6.03;75.29;98791.63;10314745;28;20266;-72
2021/05/04 04:46:15;;;;;;;7.65;4.32;;;;;;;5.99;75.67;98784.06;10316295;28;20254;-73
2021/05/04 04:51:17;;;;;;;6.60;5.00;;;;;;;6.16;75.36;98781.59;10313631;28;20605;-72
2021/05/04 04:56:19;;;;;;;4.93;4.43;;;;;;;6.18;75.57;98776.97;10313417;28;20924;-74
2021/05/04 05:01:21;;;;;;;5.50;4.40;;;;;;;5.91;76.62;98768.75;10315332;28;20223;-74
2021/05/04 05:06:23;;;;;;;5.53;4.35;;;;;;;5.89;76.74;98771.53;10312883;28;20247;-73
2021/05/04 05:11:26;;;;;;;6.45;4.40;;;;;;;5.98;77.14;98753.03;10315663;28;20711;-74
2021/05/04 05:16:28;;;;;;;5.30;3.67;;;;;;;5.85;77.43;98743.47;10288481;28;20730;-73
2021/05/04 05:21:31;;;;;;;4.65;3.45;;;;;;;5.90;76.60;98733.25;10272264;28;20724;-72
2021/05/04 05:26:35;;;;;;;3.92;3.35;;;;;;;6.08;75.32;98724.59;10273651;28;20248;-72
2021/05/04 05:31:37;;;;;;;4.22;3.55;;;;;;;6.26;74.45;98712.31;10273938;28;20235;-72
2021/05/04 05:36:39;;;;;;;4.50;4.05;;;;;;;6.31;73.98;98704.75;10273390;28;20266;-72
2021/05/04 05:41:42;;;;;;;3.42;2.70;;;;;;;6.27;72.19;98697.16;10273321;28;20240;-71
2021/05/04 05:46:44;;;;;;;3.28;2.67;;;;;;;6.40;71.63;98693.22;10271656;28;21471;-71
2021/05/04 05:51:46;;;;;;;3.83;3.05;;;;;;;6.66;71.50;98679.34;10274313;28;20262;-72
2021/05/04 05:56:49;;;;;;;2.28;2.00;;;;;;;6.83;70.38;98654.63;10273930;28;20314;-72
2021/05/04 06:01:51;;;;;;;4.03;3.30;;;;;;;6.91;70.34;98672.63;10270980;28;20318;-70
2021/05/04 06:06:53;;;;;;;4.05;2.63;;;;;;;6.82;69.08;98628.91;10273835;28;20227;-70
2021/05/04 06:11:59;;;;;;;2.83;2.55;;;;;;;6.87;68.55;98624.97;10271452;28;20239;-69
2021/05/04 06:17:01;;;;;;;2.80;1.83;;;;;;;6.72;69.54;98629.91;10303279;28;20348;-70
2021/05/04 06:22:03;;;;;;;2.67;2.22;;;;;;;6.88;68.54;98624.00;10310961;28;20268;-69
2021/05/04 06:27:06;;;;;;;2.53;2.20;;;;;;;7.04;67.89;98617.09;10310932;28;20235;-69
2021/05/04 06:32:10;;;;;;;6.50;2.65;;;;;;;7.41;67.24;98628.78;10310682;28;20227;-69
2021/05/04 06:37:12;;;;;;;2.80;2.05;;;;;;;7.35;65.73;98613.31;10310482;28;20272;-69
2021/05/04 06:42:16;;;;;;;4.10;2.53;;;;;;;7.83;64.67;98583.69;10313148;28;20235;-70
2021/05/04 06:47:18;;;;;;;4.90;2.60;;;;;;;7.82;64.15;98598.06;10309421;28;20246;-70
2021/05/04 06:52:22;;;;;;;3.22;2.15;;;;;;;7.84;63.62;98584.53;10309765;28;20246;-70
2021/05/04 06:57:25;;;;;;;2.47;2.15;;;;;;;7.68;63.81;98591.38;10311108;28;20326;-70
2021/05/04 07:02:27;;;;;;;3.30;2.05;;;;;;;7.66;64.12;98592.53;10308538;28;20247;-70
2021/05/04 07:07:29;;;;;;;3.38;2.13;;;;;;;7.29;67.29;98577.38;10309326;28;20243;-70
2021/05/04 07:12:32;;;;;;;3.47;1.98;;;;;;;7.37;68.12;98572.13;10310580;28;20239;-71
2021/05/04 07:17:34;;;;;;;3.83;1.98;;;;;;;7.19;67.87;98584.59;10296380;28;21860;-70
2021/05/04 07:22:37;;;;;;;1.65;1.52;;;;;;;7.42;67.41;98615.28;10309947;28;20239;-70
2021/05/04 07:27:39;;;;;;;3.90;2.00;;;;;;;7.42;67.96;98577.03;10308945;28;20242;-70
2021/05/04 07:32:41;;;;;;;3.40;1.80;;;;;;;7.23;69.83;98562.78;10310587;28;20381;-70
2021/05/04 07:37:44;;;;;;;3.85;2.15;;;;;;;7.13;69.92;98537.09;10310038;28;20454;-70
2021/05/04 07:42:47;;;;;;;4.63;2.20;;;;;;;7.81;67.66;98531.38;10307216;28;20243;-71
2021/05/04 07:47:54;;;;;;;2.67;2.22;;;;;;;8.81;64.35;98506.13;10307179;28;20271;-70
2021/05/04 07:52:56;;;;;;;1.42;1.33;;;;;;;8.71;63.25;98532.16;10308568;28;20274;-70
2021/05/04 07:57:59;;;;;;;3.13;1.90;;;;;;;8.70;62.45;98501.88;10308730;28;20245;-70
2021/05/04 08:03:01;;;;;;;2.85;2.03;;;;;;;8.61;61.70;98513.50;10307998;28;20910;-70
2021/05/04 08:08:04;;;;;;;1.85;1.73;;;;;;;8.94;60.55;98503.00;10308119;28;20318;-71
2021/05/04 08:13:07;;;;;;;2.10;1.55;;;;;;;8.55;60.97;98506.94;10306493;28;20235;-70
2021/05/04 08:18:11;;;;;;;2.95;2.20;;;;;;;8.45;61.45;98499.97;10261840;28;20243;-71
2021/05/04 08:23:14;;;;;;;2.85;1.88;;;;;;;8.53;61.38;98495.59;10266120;28;20235;-71
2021/05/04 08:28:17;;;;;;;2.63;2.03;;;;;;;9.03;60.83;98518.94;10255324;28;20307;-71
2021/05/04 08:33:22;;;;;;;1.80;1.70;;;;;;;8.58;60.34;98477.22;10259125;28;20284;-71
2021/05/04 08:38:24;;;;;;;5.20;1.63;;;;;;;8.46;60.90;98501.72;10266280;28;20326;-71
2021/05/04 08:43:27;;;;;;;2.25;1.70;;;;;;;8.87;60.01;98504.66;10257360;28;20254;-71
2021/05/04 08:48:30;;;;;;;1.60;1.33;;;;;;;9.01;59.31;98478.09;10248174;28;21931;-71
2021/05/04 08:53:32;;;;;;;1.13;1.05;;;;;;;9.38;58.41;98458.16;10225472;28;20238;-71
2021/05/04 08:58:35;;;;;;;2.35;1.42;;;;;;;8.82;59.92;98507.78;10224826;28;20772;-71
2021/05/04 09:03:50;;;;;;;2.05;1.55;;;;;;;8.96;60.15;98491.13;10227237;28;20241;-71
2021/05/04 09:08:56;;;;;;;2.08;1.27;;;;;;;9.10;59.85;98462.06;10227599;28;20232;-71
2021/05/04 09:14:06;;;;;;;1.55;1.45;;;;;;;9.10;60.07;98503.06;10238451;28;20230;-71
2021/05/04 09:19:15;;;;;;;1.42;1.33;;;;;;;8.74;60.48;98446.19;10310570;28;20262;-71
2021/05/04 09:24:23;;;;;;;2.85;1.48;;;;;;;8.95;60.34;98448.47;10312760;28;20238;-71
2021/05/04 09:29:30;;;;;;;1.77;1.50;;;;;;;9.13;60.35;98459.06;10314923;28;20254;-71
2021/05/04 09:34:43;;;;;;;1.90;1.30;;;;;;;8.89;61.31;98423.16;10314296;28;20254;-70
2021/05/04 09:39:45;;;;;;;2.65;1.63;;;;;;;8.91;63.33;98464.00;10311999;28;21376;-71
2021/05/04 09:44:50;;;;;;;1.95;1.45;;;;;;;8.86;63.35;98454.75;10274610;28;20250;-72
2021/05/04 09:49:52;;;;;;;1.33;1.23;;;;;;;9.11;63.22;98445.00;10270628;28;20271;-72
2021/05/04 09:55:07;;;;;;;5.32;1.75;;;;;;;8.70;66.07;98448.34;10270689;28;20315;-70
2021/05/04 10:00:12;;;;;;;1.70;1.50;;;;;;;8.82;63.98;98411.41;10271176;28;20378;-70
2021/05/04 10:05:18;;;;;;;3.10;1.80;;;;;;;9.40;62.58;98397.19;10270602;28;20247;-70
2021/05/04 10:10:20;;;;;;;2.33;1.52;;;;;;;9.25;61.29;98399.66;10273265;28;21403;-70
2021/05/04 10:15:23;;;;;;;1.60;1.50;;;;;;;9.56;60.80;98371.41;10282369;28;20624;-70
2021/05/04 10:20:25;;;;;;;3.33;2.13;;;;;;;9.88;60.44;98368.75;10250357;28;20235;-70
2021/05/04 10:25:28;;;;;;;3.50;1.77;;;;;;;10.19;58.84;98343.91;10248718;28;20244;-70
2021/05/04 10:30:31;;;;;;;1.48;1.35;;;;;;;10.06;59.12;98371.25;10242629;28;20240;-70
2021/05/04 10:35:42;;;;;;;2.40;1.38;;;;;;;10.28;57.64;98382.28;10243873;28;20623;-70
2021/05/04 10:40:46;;;;;;;2.78;1.42;;;;;;;9.75;58.87;98431.91;10232469;28;20240;-70
2021/05/04 10:45:55;;;;;;;1.77;1.55;;;;;;;9.74;60.34;98406.94;10243949;28;20717;-70
2021/05/04 10:50:58;;;;;;;1.50;1.40;;;;;;;9.14;65.04;98405.34;10231895;28;20367;-70
2021/05/04 10:56:09;;;;;;;4.10;1.40;;;;;;;9.91;63.94;98389.88;10231081;28;20233;-70
2021/05/04 11:01:17;;;;;;;2.72;1.67;;;;;;;10.72;60.98;98427.44;10230822;28;20236;-69
2021/05/04 11:06:45;;;;;;;3.28;1.88;;;;;;;10.97;60.30;98410.25;10228762;28;20805;-69
2021/05/04 11:11:51;;;;;;;1.95;1.80;;;;;;;10.67;61.09;98409.19;10229474;28;20243;-69
2021/05/04 11:17:14;;;;;;;2.40;1.52;;;;;;;9.86;60.88;98362.72;10289276;28;20239;-70
2021/05/04 11:22:22;;;;;;;2.88;1.52;;;;;;;10.45;59.58;98334.75;10309298;28;20318;-70
2021/05/04 11:27:30;;;;;;;1.60;1.50;;;;;;;10.52;59.91;98327.69;10309776;28;20242;-70
2021/05/04 11:32:41;;;;;;;2.10;1.70;;;;;;;9.66;63.31;98350.66;10308111;28;20285;-70
2021/05/04 11:37:47;;;;;;;2.10;1.90;;;;;;;8.88;69.11;98375.13;10309554;28;20230;-71
2021/05/04 11:42:51;;;;;;;5.28;1.88;;;;;;;7.86;77.87;98396.28;10258403;28;20235;-71
2021/05/04 11:47:55;;;;;;;7.07;4.20;;;;;;;7.71;81.32;98384.47;10229106;28;20240;-71
2021/05/04 11:52:59;;;;;;;4.93;3.58;;;;;;;8.28;82.32;98378.66;10243105;28;20321;-70
2021/05/04 11:58:03;;;;;;;5.03;2.95;;;;;;;8.36;79.25;98366.19;10238731;28;20235;-69
2021/05/04 12:03:07;;;;;;;5.00;3.72;;;;;;;7.93;81.61;98392.00;10240192;28;20244;-70
2021/05/04 12:08:10;;;;;;;6.43;2.72;;;;;;;7.04;84.63;98421.38;10230409;28;20620;-70
2021/05/04 12:13:15;;;;;;;3.10;2.03;;;;;;;8.00;83.24;98456.38;10227011;28;20259;-70
2021/05/04 12:18:21;;;;;;;6.93;2.47;;;;;;;8.41;80.29;98411.19;10166824;28;20251;-70
2021/05/04 12:23:27;;;;;;;3.17;2.38;;;;;;;8.43;77.49;98576.91;10154439;28;20252;-72
2021/05/04 12:28:31;;;;;;;3.78;2.25;;;;;;;8.68;73.17;98390.63;10140949;28;20235;-70
2021/05/04 12:33:35;;;;;;;3.40;2.35;;;;;;;9.75;70.50;98442.63;10141513;28;20237;-71
2021/05/04 12:38:43;;;;;;;6.50;2.85;;;;;;;10.48;67.23;98433.75;10122346;28;20259;-71
2021/05/04 12:44:01;;;;;;;5.15;2.80;;;;;;;10.43;64.21;98417.31;10184850;28;20240;-71
2021/05/04 12:49:15;;;;;;;5.78;2.10;;;;;;;10.73;63.59;98421.91;10210612;28;20790;-71
2021/05/04 12:54:21;;;;;;;5.13;2.63;;;;;;;10.52;63.58;98445.78;10290608;28;20609;-71
2021/05/04 12:59:33;;;;;;;3.58;2.88;;;;;;;10.80;61.16;98436.31;10314954;28;20241;-71
2021/05/04 13:04:40;;;;;;;5.75;2.83;;;;;;;10.90;57.85;98414.63;10315792;28;20830;-70
2021/05/04 13:09:55;;;;;;;7.38;2.58;;;;;;;12.19;53.31;98407.72;10314765;28;20607;-70
2021/05/04 13:15:39;;;;;;;5.63;2.83;;;;;;;11.91;54.51;98412.88;10300345;28;20250;-70
2021/05/04 13:31:32;;;;;;;4.05;1.90;;;;;;;6.37;79.46;98488.16;10255525;28;20328;-70
2021/05/04 13:36:35;;;;;;;5.32;3.08;;;;;;;8.70;73.30;98493.00;10251972;28;20717;-70
2021/05/04 13:47:30;;;;;;;6.78;3.22;;;;;;;9.81;64.22;98501.78;10206639;28;20240;-70
2021/05/04 13:52:33;;;;;;;5.38;3.90;;;;;;;11.39;63.43;98513.03;10241633;28;20262;-71
2021/05/04 13:57:36;;;;;;;4.20;3.72;;;;;;;9.97;63.33;98521.63;10251077;28;20278;-71
2021/05/04 14:02:45;;;;;;;6.00;2.55;;;;;;;9.59;61.92;98527.38;10249280;28;20285;-70
2021/05/04 14:29:59;;;;;;;7.32;3.63;;;;;;;9.76;63.11;98522.88;10254284;28;20235;-70
2021/05/04 14:41:46;;;;;;;7.35;3.75;;;;;;;10.16;57.97;98591.88;10231223;28;20307;-71
2021/05/04 14:53:53;;;;;;;3.67;3.13;;;;;;;11.71;52.12;98538.91;10231888;28;20667;-71
2021/05/04 14:59:00;;;;;;;6.65;3.67;;;;;;;11.45;52.83;98536.53;10245927;28;20236;-71
2021/05/04 15:04:02;;;;;;;4.75;2.88;;;;;;;11.79;50.84;98505.75;10253725;28;20379;-71
2021/05/04 15:09:07;;;;;;;3.70;2.40;;;;;;;11.73;48.62;98491.16;10248294;28;20338;-71
2021/05/04 15:14:18;;;;;;;4.35;2.20;;;;;;;11.83;47.26;98507.09;10255403;28;20246;-71
2021/05/04 15:24:40;;;;;;;4.50;2.50;;;;;;;11.99;47.52;98514.22;10247260;28;20315;-71
2021/05/04 15:29:42;;;;;;;3.22;1.90;;;;;;;10.99;46.07;98491.47;10256527;28;20253;-71
2021/05/04 15:34:44;;;;;;;18.95;2.75;;;;;;;12.18;44.81;98586.41;10242835;28;20280;-71
2021/05/04 15:39:46;;;;;;;3.55;1.60;;;;;;;11.75;45.72;98507.97;10228186;28;20259;-72
2021/05/04 15:44:54;;;;;;;4.72;2.10;;;;;;;12.14;45.24;98528.53;10227520;28;20237;-71
2021/05/04 15:49:59;;;;;;;1.55;1.08;;;;;;;11.65;45.37;98510.03;10227794;28;20244;-69
2021/05/04 16:11:06;;;;;;;5.40;2.25;;;;;;;10.81;46.18;98478.28;10238328;28;20364;-71
2021/05/04 16:16:08;;;;;;;5.55;1.75;;;;;;;10.32;48.17;98515.09;10245347;28;20777;-71
2021/05/04 16:21:24;;;;;;;5.05;1.98;;;;;;;10.10;49.50;98508.56;10244209;28;20243;-71
2021/05/04 16:31:44;;;;;;;1.75;1.50;;;;;;;10.10;48.24;98564.91;10244280;28;20230;-71
2021/05/04 16:36:46;;;;;;;3.15;1.95;;;;;;;11.88;45.22;98536.97;10245199;28;20293;-71
2021/05/04 16:41:48;;;;;;;1.88;1.17;;;;;;;10.19;47.16;98546.97;10257031;28;20235;-71
2021/05/04 16:46:57;;;;;;;5.78;1.60;;;;;;;9.56;49.11;98572.44;10265698;28;20239;-71
2021/05/04 16:52:02;;;;;;;11.05;2.00;;;;;;;9.66;49.97;98559.75;10267484;28;20235;-71
2021/05/04 16:57:05;;;;;;;3.15;1.80;;;;;;;11.00;48.10;98529.94;10268963;28;20236;-71
2021/05/04 17:02:10;;;;;;;3.05;1.33;;;;;;;11.27;47.38;98594.06;10259501;28;20921;-71
2021/05/04 17:07:16;;;;;;;2.55;1.67;;;;;;;11.73;47.48;98626.47;10247920;28;20241;-71
2021/05/04 17:12:19;;;;;;;1.88;1.73;;;;;;;13.50;44.66;98584.22;10252242;28;20254;-72
2021/05/04 17:17:21;;;;;;;1.60;1.50;;;;;;;12.53;46.30;98595.78;10299439;28;20243;-71
2021/05/04 17:22:25;;;;;;;3.28;1.80;;;;;;;8.76;56.12;98626.22;10306201;28;20231;-71
2021/05/04 17:27:27;;;;;;;4.57;1.92;;;;;;;8.18;57.50;98620.31;10306416;28;20242;-72
2021/05/04 17:32:30;;;;;;;3.58;2.15;;;;;;;8.19;58.06;98597.09;10243324;28;20251;-71
2021/05/04 17:37:32;;;;;;;2.03;1.80;;;;;;;8.10;58.85;98606.03;10226588;28;21424;-71
2021/05/04 17:42:34;;;;;;;3.40;1.70;;;;;;;7.94;59.74;98630.75;10241083;28;20251;-71
2021/05/04 17:47:37;;;;;;;2.97;2.67;;;;;;;7.97;62.54;98609.06;10252912;28;20994;-71
2021/05/04 17:52:39;;;;;;;5.70;2.38;;;;;;;7.38;66.14;98645.94;10245591;28;20657;-71
2021/05/04 17:57:41;;;;;;;3.63;2.78;;;;;;;7.18;66.35;98621.13;10246051;28;20259;-71
2021/05/04 18:02:44;;;;;;;2.95;2.25;;;;;;;7.49;64.76;98640.41;10250931;28;20236;-71
2021/05/04 18:07:47;;;;;;;3.15;2.85;;;;;;;7.54;65.77;98637.28;10249563;28;20248;-71
2021/05/04 18:13:00;;;;;;;3.60;2.60;;;;;;;7.94;64.87;98642.28;10233655;28;20315;-71
2021/05/04 18:23:24;;;;;;;3.20;2.40;;;;;;;6.79;67.40;98639.03;10271710;28;20388;-71
2021/05/04 18:28:27;;;;;;;1.92;1.80;;;;;;;6.87;65.99;98628.50;10271467;28;20771;-71
2021/05/04 18:33:32;;;;;;;2.72;2.30;;;;;;;6.48;66.76;98644.53;10272143;28;20720;-71
2021/05/04 18:38:41;;;;;;;1.70;1.60;;;;;;;6.66;66.21;98652.66;10271866;28;20240;-71
2021/05/04 19:05:38;;;;;;;3.33;2.90;;;;;;;6.73;65.96;98711.66;10211174;28;20236;-71
2021/05/04 19:11:04;;;;;;;2.90;2.55;;;;;;;6.44;67.58;98716.97;10230106;28;20264;-71
2021/05/04 19:21:54;;;;;;;6.50;3.70;;;;;;;6.28;70.23;98688.16;10293960;28;20239;-72
2021/05/04 20:09:49;;;;;;;5.53;4.07;;;;;;;6.27;70.04;98731.81;10267973;28;20767;-72
2021/05/04 20:14:54;;;;;;;7.55;4.20;;;;;;;6.32;70.66;98722.41;10296028;28;20234;-72
2021/05/04 20:19:58;;;;;;;4.90;3.15;;;;;;;6.21;71.21;98717.22;10246299;28;20565;-72
2021/05/04 20:25:01;;;;;;;7.55;5.15;;;;;;;6.20;71.49;98718.19;10259893;28;20813;-72
2021/05/04 20:30:03;;;;;;;7.80;6.00;;;;;;;6.37;70.85;98730.00;10267045;28;20644;-72
2021/05/04 20:35:10;;;;;;;6.90;5.60;;;;;;;6.44;70.65;98744.47;10267762;28;20598;-72
2021/05/04 20:40:14;;;;;;;8.63;5.32;;;;;;;5.92;72.05;98754.44;10252156;28;20267;-72
2021/05/04 20:45:16;;;;;;;8.45;5.20;;;;;;;6.05;71.34;98716.88;10247394;28;20248;-72
2021/05/04 20:50:19;;;;;;;6.53;4.30;;;;;;;6.01;70.74;98721.66;10227543;28;20284;-71
2021/05/04 20:55:21;;;;;;;6.47;4.63;;;;;;;5.95;70.67;98716.84;10227803;28;20232;-72
2021/05/04 21:00:24;;;;;;;5.72;4.82;;;;;;;6.05;69.73;98707.06;10228016;28;20248;-72
2021/05/04 21:05:26;;;;;;;6.10;4.53;;;;;;;5.89;70.37;98712.91;10226324;28;20457;-72
2021/05/04 21:10:33;;;;;;;5.75;5.18;;;;;;;6.08;68.89;98716.59;10228185;28;20929;-72
2021/05/04 21:15:36;;;;;;;10.90;7.15;;;;;;;6.00;69.61;98722.63;10244215;28;20236;-72
2021/05/04 21:20:42;;;;;;;9.40;6.88;;;;;;;6.10;69.72;98722.66;10237442;28;20244;-72
2021/05/04 21:26:04;;;;;;;8.05;5.72;;;;;;;6.30;68.67;98723.53;10266283;28;20793;-72
2021/05/04 21:31:07;;;;;;;6.32;5.07;;;;;;;5.93;69.13;98719.66;10273845;28;20236;-72
2021/05/04 21:36:10;;;;;;;3.67;3.30;;;;;;;6.17;68.69;98697.97;10274758;28;20238;-72
2021/05/04 21:41:13;;;;;;;8.63;5.78;;;;;;;6.23;68.47;98722.41;10232915;28;20419;-72
2021/05/04 21:46:16;;;;;;;5.15;4.10;;;;;;;6.20;68.26;98701.34;10235334;28;20240;-72
2021/05/04 21:51:18;;;;;;;8.20;5.28;;;;;;;6.39;67.60;98698.72;10232217;28;20264;-72
2021/05/04 21:56:21;;;;;;;8.20;5.88;;;;;;;6.26;68.13;98716.81;10234108;28;20240;-72
2021/05/04 22:01:23;;;;;;;3.45;3.10;;;;;;;6.05;68.84;98733.72;10230982;28;20252;-72
2021/05/04 22:06:25;;;;;;;8.25;6.15;;;;;;;6.36;67.87;98721.19;10231244;28;20236;-72
2021/05/04 22:11:31;;;;;;;6.07;4.45;;;;;;;6.18;67.90;98728.97;10230635;28;20243;-72
2021/05/04 22:37:55;;;;;;;6.57;5.63;;;;;;;6.16;68.09;98698.94;10310846;28;20250;-72
2021/05/04 22:43:05;;;;;;;6.57;5.30;;;;;;;5.99;69.28;98698.78;10309723;28;20235;-72
2021/05/04 22:48:47;;;;;;;4.93;4.43;;;;;;;5.88;68.88;98684.56;10310997;28;20242;-72
2021/05/04 23:20:32;;;;;;;2.97;2.72;;;;;;;6.09;66.69;98692.50;10268196;28;20576;-72
2021/05/04 23:25:34;;;;;;;3.50;2.88;;;;;;;6.18;66.58;98689.00;10267273;28;20231;-72
2021/05/04 23:30:37;;;;;;;5.65;4.03;;;;;;;6.28;66.25;98666.81;10269065;28;20236;-72
2021/05/04 23:35:39;;;;;;;6.25;3.42;;;;;;;6.06;66.62;98692.78;10268383;28;20236;-72
2021/05/04 23:40:41;;;;;;;4.78;4.30;;;;;;;5.48;72.11;98680.06;10268728;28;20243;-72
2021/05/04 23:45:44;;;;;;;6.15;3.42;;;;;;;4.82;75.17;98661.72;10268714;28;20243;-72
2021/05/04 23:50:46;;;;;;;9.50;3.92;;;;;;;4.85;76.23;98665.94;10268245;28;20883;-72
2021/05/04 23:55:48;;;;;;;5.28;4.07;;;;;;;4.81;75.39;98668.03;10268213;28;20232;-72
